Time;durP1;ratioP1;P1;durP2;ratioP2;P2;SDS_P1;SDS_P2;PMS_P1;PMS_P2;Temp;Humidity;BMP_temperature;BMP_pressure;BME280_temperature;BME280_humidity;BME280_pressure;Samples;Min_cycle;Max_cycle;Signal;HPM_P1;HPM_P2
2021/08/28 00:00:36;;;;;;;5.20;2.47;;;;;;;;;;5023907;28;20161;-80
2021/08/28 00:03:01;;;;;;;4.97;2.97;;;;;;;;;;5022308;28;20251;-80
2021/08/28 00:05:27;;;;;;;5.37;3.00;;;;;;;;;;5023011;28;20207;-80
2021/08/28 00:07:53;;;;;;;7.13;3.00;;;;;;;;;;5020516;28;20275;-80
2021/08/28 00:10:18;;;;;;;4.83;2.67;;;;;;;;;;5022928;28;20629;-80
2021/08/28 00:12:44;;;;;;;5.10;2.73;;;;;;;;;;5022644;28;20421;-80
2021/08/28 00:15:09;;;;;;;4.87;2.57;;;;;;;;;;5022274;28;20750;-80
2021/08/28 00:17:35;;;;;;;5.33;3.13;;;;;;;;;;5021727;28;20177;-80
2021/08/28 00:20:02;;;;;;;5.77;2.60;;;;;;;;;;5022057;28;20173;-80
2021/08/28 00:22:28;;;;;;;6.50;3.20;;;;;;;;;;5023077;28;20391;-80
2021/08/28 00:24:53;;;;;;;9.20;2.90;;;;;;;;;;5022100;28;20454;-80
2021/08/28 00:27:18;;;;;;;3.97;2.70;;;;;;;;;;5023171;28;20195;-80
2021/08/28 00:29:43;;;;;;;8.80;3.70;;;;;;;;;;5021914;28;20185;-80
2021/08/28 00:32:09;;;;;;;4.87;2.77;;;;;;;;;;5021854;28;20196;-80
2021/08/28 00:34:34;;;;;;;4.87;2.60;;;;;;;;;;5021664;28;20232;-80
2021/08/28 00:36:59;;;;;;;10.23;3.20;;;;;;;;;;5022461;28;20172;-80
2021/08/28 00:39:24;;;;;;;4.30;3.07;;;;;;;;;;5021570;28;20180;-80
2021/08/28 00:41:49;;;;;;;4.93;3.20;;;;;;;;;;5021977;28;20189;-80
2021/08/28 00:44:15;;;;;;;5.87;3.30;;;;;;;;;;5021513;28;20198;-80
2021/08/28 00:46:40;;;;;;;5.20;2.87;;;;;;;;;;5021366;28;20592;-80
2021/08/28 00:49:05;;;;;;;8.67;3.17;;;;;;;;;;5021891;28;20176;-81
2021/08/28 00:51:31;;;;;;;6.10;2.80;;;;;;;;;;5021636;28;20262;-80
2021/08/28 00:53:57;;;;;;;5.03;2.90;;;;;;;;;;5021490;28;20192;-80
2021/08/28 00:56:22;;;;;;;4.33;2.93;;;;;;;;;;5022266;28;20466;-80
2021/08/28 00:58:47;;;;;;;4.40;2.73;;;;;;;;;;5022186;28;20598;-80
2021/08/28 01:01:16;;;;;;;7.30;3.17;;;;;;;;;;5021581;28;20268;-80
2021/08/28 01:03:41;;;;;;;4.13;2.33;;;;;;;;;;5022826;28;20180;-80
2021/08/28 01:06:31;;;;;;;6.93;2.60;;;;;;;;;;5021370;28;20432;-80
2021/08/28 01:09:02;;;;;;;7.40;2.50;;;;;;;;;;5022326;28;20189;-80
2021/08/28 01:11:45;;;;;;;3.80;2.40;;;;;;;;;;5020385;28;20392;-80
2021/08/28 01:14:15;;;;;;;4.93;2.40;;;;;;;;;;5021714;28;20456;-80
2021/08/28 01:16:41;;;;;;;4.00;2.50;;;;;;;;;;5020732;28;20484;-80
2021/08/28 01:19:11;;;;;;;7.03;2.73;;;;;;;;;;5022907;28;20896;-80
2021/08/28 01:21:37;;;;;;;3.23;2.20;;;;;;;;;;5024300;28;20416;-80
2021/08/28 01:24:04;;;;;;;5.77;2.10;;;;;;;;;;5025646;28;20402;-80
2021/08/28 01:26:50;;;;;;;2.73;2.00;;;;;;;;;;5025455;28;20747;-80
2021/08/28 01:29:20;;;;;;;3.03;2.10;;;;;;;;;;5024384;28;20459;-80
2021/08/28 01:31:46;;;;;;;4.60;2.70;;;;;;;;;;5025572;28;20396;-80
2021/08/28 01:34:12;;;;;;;4.30;2.57;;;;;;;;;;5025351;28;20891;-80
2021/08/28 01:36:40;;;;;;;4.27;2.37;;;;;;;;;;5026137;28;20399;-80
2021/08/28 01:39:06;;;;;;;4.60;2.30;;;;;;;;;;5026126;28;20806;-80
2021/08/28 01:41:31;;;;;;;7.53;2.70;;;;;;;;;;5025328;28;20470;-80
2021/08/28 01:43:57;;;;;;;6.23;2.90;;;;;;;;;;5040629;28;20169;-80
2021/08/28 01:46:23;;;;;;;7.33;2.20;;;;;;;;;;5024969;28;20184;-80
2021/08/28 01:48:48;;;;;;;7.20;2.87;;;;;;;;;;5024806;28;20407;-80
2021/08/28 01:51:13;;;;;;;7.57;3.20;;;;;;;;;;5025245;28;20203;-80
2021/08/28 01:53:39;;;;;;;6.27;3.07;;;;;;;;;;5023451;28;20264;-80
2021/08/28 01:56:05;;;;;;;6.53;3.30;;;;;;;;;;5024471;28;20250;-80
2021/08/28 01:58:30;;;;;;;3.47;2.57;;;;;;;;;;5025093;28;20193;-80
2021/08/28 02:00:56;;;;;;;4.30;3.20;;;;;;;;;;5024001;28;20412;-80
2021/08/28 02:03:21;;;;;;;6.83;3.50;;;;;;;;;;5024186;28;20161;-79
2021/08/28 02:05:48;;;;;;;7.80;3.40;;;;;;;;;;5025449;28;20196;-80
2021/08/28 02:08:19;;;;;;;5.63;3.07;;;;;;;;;;5025862;28;20177;-80
2021/08/28 02:10:48;;;;;;;7.20;3.90;;;;;;;;;;5024112;28;20420;-80
2021/08/28 02:13:32;;;;;;;6.17;3.23;;;;;;;;;;5024972;28;20412;-80
2021/08/28 02:16:01;;;;;;;7.40;3.40;;;;;;;;;;5023882;28;20447;-80
2021/08/28 02:18:33;;;;;;;7.87;3.37;;;;;;;;;;5025345;28;20411;-80
2021/08/28 02:21:01;;;;;;;4.80;3.37;;;;;;;;;;5024360;28;20411;-80
2021/08/28 02:23:31;;;;;;;5.13;3.23;;;;;;;;;;5024531;28;20415;-80
2021/08/28 02:26:06;;;;;;;5.43;3.30;;;;;;;;;;5023439;28;20991;-80
2021/08/28 02:28:42;;;;;;;5.10;3.20;;;;;;;;;;5023738;28;20443;-80
2021/08/28 02:31:08;;;;;;;9.00;4.10;;;;;;;;;;5023915;28;20451;-80
2021/08/28 02:33:34;;;;;;;5.53;3.40;;;;;;;;;;5023537;28;21155;-80
2021/08/28 02:36:00;;;;;;;6.20;3.23;;;;;;;;;;5022934;28;20279;-80
2021/08/28 02:38:26;;;;;;;6.73;3.77;;;;;;;;;;5022277;28;20185;-80
2021/08/28 02:40:51;;;;;;;7.37;3.67;;;;;;;;;;5025138;28;20442;-80
2021/08/28 02:43:17;;;;;;;4.70;3.67;;;;;;;;;;5024690;28;20946;-80
2021/08/28 02:45:43;;;;;;;5.37;3.43;;;;;;;;;;5023439;28;20189;-80
2021/08/28 02:48:08;;;;;;;7.27;3.80;;;;;;;;;;5022889;28;20184;-80
2021/08/28 02:50:35;;;;;;;4.30;3.50;;;;;;;;;;5024493;28;20187;-80
2021/08/28 02:53:01;;;;;;;6.10;3.63;;;;;;;;;;5023478;28;20219;-80
2021/08/28 02:55:28;;;;;;;6.70;4.17;;;;;;;;;;5023277;28;20517;-79
2021/08/28 02:57:55;;;;;;;5.80;4.00;;;;;;;;;;5024034;28;20416;-80
2021/08/28 03:00:21;;;;;;;6.43;3.50;;;;;;;;;;5024421;28;20888;-80
2021/08/28 03:02:47;;;;;;;8.37;4.37;;;;;;;;;;5024072;28;20418;-80
2021/08/28 03:05:13;;;;;;;5.43;3.27;;;;;;;;;;5022438;28;20703;-80
2021/08/28 03:07:40;;;;;;;10.13;4.60;;;;;;;;;;5021874;28;20176;-80
2021/08/28 03:10:06;;;;;;;5.90;3.83;;;;;;;;;;5024379;28;20500;-80
2021/08/28 03:12:31;;;;;;;5.43;3.07;;;;;;;;;;5022251;28;20805;-80
2021/08/28 03:14:57;;;;;;;9.33;4.00;;;;;;;;;;5022970;28;20539;-80
2021/08/28 03:17:22;;;;;;;8.13;4.00;;;;;;;;;;5024199;28;20204;-80
2021/08/28 03:19:48;;;;;;;5.70;3.13;;;;;;;;;;5023842;28;20250;-80
2021/08/28 03:22:15;;;;;;;5.53;3.13;;;;;;;;;;5022939;28;20748;-80
2021/08/28 03:24:41;;;;;;;8.33;3.63;;;;;;;;;;5036991;28;20873;-80
2021/08/28 03:27:07;;;;;;;4.80;3.27;;;;;;;;;;5022934;28;20434;-80
2021/08/28 03:29:33;;;;;;;7.07;4.20;;;;;;;;;;5023106;28;21123;-80
2021/08/28 03:32:00;;;;;;;4.40;3.37;;;;;;;;;;5023030;28;20782;-80
2021/08/28 03:34:25;;;;;;;5.03;3.60;;;;;;;;;;5023291;28;20459;-80
2021/08/28 03:36:50;;;;;;;6.03;3.20;;;;;;;;;;5022363;28;20415;-80
2021/08/28 03:39:16;;;;;;;9.07;3.60;;;;;;;;;;5022781;28;20172;-80
2021/08/28 03:41:41;;;;;;;5.70;3.10;;;;;;;;;;5021706;28;20524;-80
2021/08/28 03:44:12;;;;;;;5.33;3.03;;;;;;;;;;5021180;28;20224;-80
2021/08/28 03:46:37;;;;;;;6.70;3.80;;;;;;;;;;5021783;28;20176;-80
2021/08/28 03:49:02;;;;;;;10.53;4.03;;;;;;;;;;5023223;28;20788;-80
2021/08/28 03:51:28;;;;;;;5.10;3.27;;;;;;;;;;5021839;28;20228;-80
2021/08/28 03:53:53;;;;;;;5.13;3.30;;;;;;;;;;5022877;28;20196;-80
2021/08/28 03:56:18;;;;;;;8.57;3.60;;;;;;;;;;5021478;28;20169;-80
2021/08/28 03:58:46;;;;;;;6.07;3.60;;;;;;;;;;5021649;28;20176;-80
2021/08/28 04:01:11;;;;;;;6.70;3.50;;;;;;;;;;5018271;28;20180;-80
2021/08/28 04:03:36;;;;;;;5.50;3.13;;;;;;;;;;5022373;28;20404;-80
2021/08/28 04:06:01;;;;;;;7.97;3.53;;;;;;;;;;5022063;28;20232;-80
2021/08/28 04:08:27;;;;;;;5.90;3.80;;;;;;;;;;5022210;28;20204;-80
2021/08/28 04:10:52;;;;;;;6.23;3.33;;;;;;;;;;5021311;28;20168;-80
2021/08/28 04:13:17;;;;;;;5.23;3.20;;;;;;;;;;5022355;28;20626;-80
2021/08/28 04:15:43;;;;;;;9.33;3.73;;;;;;;;;;5021904;28;20211;-80
2021/08/28 04:18:08;;;;;;;7.43;2.97;;;;;;;;;;5020813;28;20230;-80
2021/08/28 04:20:33;;;;;;;5.90;3.33;;;;;;;;;;5022941;28;20259;-80
2021/08/28 04:22:58;;;;;;;6.57;3.20;;;;;;;;;;5022401;28;20167;-79
2021/08/28 04:25:25;;;;;;;5.83;3.10;;;;;;;;;;5022124;28;20227;-80
2021/08/28 04:27:50;;;;;;;11.63;4.00;;;;;;;;;;5022177;28;20172;-80
2021/08/28 04:30:16;;;;;;;7.80;3.73;;;;;;;;;;5021719;28;21087;-80
2021/08/28 04:32:41;;;;;;;5.83;3.57;;;;;;;;;;5022069;28;20349;-80
2021/08/28 04:35:06;;;;;;;7.47;3.80;;;;;;;;;;5021727;28;20207;-80
2021/08/28 04:37:31;;;;;;;5.97;3.60;;;;;;;;;;5022002;28;20165;-80
2021/08/28 04:39:57;;;;;;;8.83;4.03;;;;;;;;;;5019002;28;20185;-80
2021/08/28 04:42:22;;;;;;;5.30;3.67;;;;;;;;;;5021910;28;20182;-80
2021/08/28 04:44:47;;;;;;;8.77;3.10;;;;;;;;;;5022086;28;20246;-80
2021/08/28 04:47:12;;;;;;;5.50;3.20;;;;;;;;;;5020337;28;20177;-80
2021/08/28 04:49:38;;;;;;;9.30;4.10;;;;;;;;;;5036979;28;20199;-80
2021/08/28 04:52:04;;;;;;;5.67;3.73;;;;;;;;;;5020694;28;20196;-80
2021/08/28 04:54:31;;;;;;;5.97;3.40;;;;;;;;;;5022604;28;20255;-80
2021/08/28 04:56:56;;;;;;;5.10;3.03;;;;;;;;;;5025330;28;20411;-80
2021/08/28 04:59:21;;;;;;;6.43;3.20;;;;;;;;;;5025574;28;20494;-80
2021/08/28 05:01:47;;;;;;;9.00;3.97;;;;;;;;;;5024470;28;20165;-80
2021/08/28 05:04:12;;;;;;;7.63;3.30;;;;;;;;;;5025260;28;20218;-79
2021/08/28 05:06:37;;;;;;;6.10;2.73;;;;;;;;;;5026857;28;20214;-80
2021/08/28 05:09:02;;;;;;;6.60;3.30;;;;;;;;;;5026143;28;20169;-80
2021/08/28 05:11:30;;;;;;;6.73;3.47;;;;;;;;;;5024388;28;20629;-80
2021/08/28 05:13:55;;;;;;;4.37;3.30;;;;;;;;;;5024896;28;20200;-79
2021/08/28 05:16:20;;;;;;;7.23;2.97;;;;;;;;;;5025103;28;20407;-80
2021/08/28 05:18:45;;;;;;;5.80;3.17;;;;;;;;;;5026210;28;20170;-80
2021/08/28 05:21:11;;;;;;;5.57;3.40;;;;;;;;;;5023493;28;20189;-79
2021/08/28 05:23:36;;;;;;;4.23;2.20;;;;;;;;;;5025852;28;20634;-80
2021/08/28 05:26:01;;;;;;;7.57;3.30;;;;;;;;;;5023838;28;20205;-79
2021/08/28 05:28:26;;;;;;;5.93;3.20;;;;;;;;;;5026769;28;20544;-79
2021/08/28 05:30:52;;;;;;;5.17;3.10;;;;;;;;;;5023916;28;20176;-79
2021/08/28 05:33:17;;;;;;;6.37;3.40;;;;;;;;;;5025881;28;20176;-79
2021/08/28 05:35:42;;;;;;;7.10;3.40;;;;;;;;;;5025291;28;20283;-79
2021/08/28 05:38:08;;;;;;;6.90;3.67;;;;;;;;;;5024852;28;20208;-80
2021/08/28 05:40:33;;;;;;;6.00;3.40;;;;;;;;;;5025687;28;20204;-80
2021/08/28 05:42:58;;;;;;;8.20;3.57;;;;;;;;;;5024735;28;20276;-79
2021/08/28 05:45:24;;;;;;;6.70;3.43;;;;;;;;;;5024592;28;20284;-80
2021/08/28 05:47:50;;;;;;;6.50;3.03;;;;;;;;;;5024486;28;20193;-79
2021/08/28 05:50:16;;;;;;;7.30;3.33;;;;;;;;;;5024976;28;20180;-80
2021/08/28 05:52:41;;;;;;;5.33;2.97;;;;;;;;;;5025300;28;20418;-79
2021/08/28 05:55:10;;;;;;;7.00;3.70;;;;;;;;;;5024102;28;20244;-79
2021/08/28 05:57:35;;;;;;;6.50;3.13;;;;;;;;;;5024844;28;20649;-79
2021/08/28 06:00:00;;;;;;;8.90;3.80;;;;;;;;;;5026366;28;20411;-80
2021/08/28 06:02:26;;;;;;;4.23;2.50;;;;;;;;;;5025649;28;20176;-79
2021/08/28 06:04:52;;;;;;;6.53;2.93;;;;;;;;;;5024570;28;20227;-79
2021/08/28 06:07:17;;;;;;;6.10;2.80;;;;;;;;;;5038646;28;20412;-79
2021/08/28 06:09:43;;;;;;;5.93;2.73;;;;;;;;;;5023729;28;20623;-79
2021/08/28 06:12:08;;;;;;;6.20;3.00;;;;;;;;;;5023801;28;20238;-79
2021/08/28 06:14:33;;;;;;;8.83;2.97;;;;;;;;;;5024787;28;20433;-79
2021/08/28 06:16:58;;;;;;;7.30;3.07;;;;;;;;;;5024348;28;20179;-79
2021/08/28 06:19:24;;;;;;;4.00;2.70;;;;;;;;;;5024747;28;20180;-80
2021/08/28 06:21:49;;;;;;;6.27;3.33;;;;;;;;;;5023688;28;20176;-79
2021/08/28 06:24:14;;;;;;;5.90;2.73;;;;;;;;;;5020288;28;20632;-79
2021/08/28 06:26:39;;;;;;;5.07;2.60;;;;;;;;;;5023986;28;20208;-79
2021/08/28 06:29:05;;;;;;;7.60;2.90;;;;;;;;;;5023810;28;20181;-80
2021/08/28 06:31:30;;;;;;;6.33;2.80;;;;;;;;;;5039579;28;20189;-80
2021/08/28 06:33:56;;;;;;;7.30;2.90;;;;;;;;;;5023475;28;20212;-79
2021/08/28 06:36:21;;;;;;;10.40;4.10;;;;;;;;;;5024686;28;20181;-80
2021/08/28 06:38:46;;;;;;;4.50;2.60;;;;;;;;;;5024492;28;20168;-79
2021/08/28 06:41:11;;;;;;;5.07;2.70;;;;;;;;;;5023346;28;20210;-79
2021/08/28 06:43:36;;;;;;;5.47;2.90;;;;;;;;;;5024949;28;20173;-80
2021/08/28 06:46:02;;;;;;;6.47;2.37;;;;;;;;;;5039060;28;20583;-80
2021/08/28 06:48:27;;;;;;;8.00;2.83;;;;;;;;;;5023645;28;20185;-80
2021/08/28 06:50:52;;;;;;;4.03;2.57;;;;;;;;;;5023321;28;20272;-79
2021/08/28 06:53:17;;;;;;;5.90;3.17;;;;;;;;;;5021224;28;20176;-80
2021/08/28 06:55:43;;;;;;;6.90;2.10;;;;;;;;;;5023041;28;20346;-80
2021/08/28 06:58:08;;;;;;;7.27;2.57;;;;;;;;;;5024075;28;20186;-79
2021/08/28 07:00:33;;;;;;;9.93;3.57;;;;;;;;;;5023308;28;20179;-80
2021/08/28 07:02:58;;;;;;;7.50;2.50;;;;;;;;;;5023230;28;20551;-79
2021/08/28 07:05:24;;;;;;;6.40;2.30;;;;;;;;;;5039083;28;20287;-79
2021/08/28 07:07:49;;;;;;;3.07;2.30;;;;;;;;;;5023942;28;20169;-79
2021/08/28 07:10:15;;;;;;;4.03;2.30;;;;;;;;;;5025354;28;20184;-79
2021/08/28 07:12:40;;;;;;;6.40;2.73;;;;;;;;;;5025354;28;20818;-79
2021/08/28 07:15:06;;;;;;;6.90;3.07;;;;;;;;;;5023660;28;20216;-79
2021/08/28 07:17:31;;;;;;;6.47;2.50;;;;;;;;;;5024857;28;20676;-79
2021/08/28 07:19:57;;;;;;;3.40;2.03;;;;;;;;;;5024049;28;20621;-79
2021/08/28 07:22:22;;;;;;;5.90;2.30;;;;;;;;;;5023897;28;20223;-79
2021/08/28 07:24:47;;;;;;;5.30;2.33;;;;;;;;;;5022309;28;20219;-79
2021/08/28 07:27:12;;;;;;;9.17;2.37;;;;;;;;;;5023187;28;20181;-79
2021/08/28 07:29:38;;;;;;;8.00;2.30;;;;;;;;;;5024695;28;20176;-78
2021/08/28 07:32:03;;;;;;;4.93;2.33;;;;;;;;;;5038127;28;20696;-79
2021/08/28 07:34:29;;;;;;;7.70;1.97;;;;;;;;;;5017853;28;20586;-79
2021/08/28 07:36:54;;;;;;;6.57;2.10;;;;;;;;;;5023887;28;20614;-79
2021/08/28 07:39:19;;;;;;;5.60;2.57;;;;;;;;;;5023625;28;20172;-79
2021/08/28 07:41:45;;;;;;;7.17;2.23;;;;;;;;;;5024464;28;20657;-79
2021/08/28 07:44:10;;;;;;;9.13;3.00;;;;;;;;;;5022925;28;20172;-79
2021/08/28 07:46:35;;;;;;;4.90;2.13;;;;;;;;;;5023738;28;20648;-79
2021/08/28 07:49:00;;;;;;;6.13;1.97;;;;;;;;;;5022701;28;20183;-79
2021/08/28 07:51:26;;;;;;;3.93;1.70;;;;;;;;;;5022226;28;20181;-79
2021/08/28 07:53:51;;;;;;;5.07;2.00;;;;;;;;;;5022923;28;20187;-79
2021/08/28 07:56:17;;;;;;;4.17;1.70;;;;;;;;;;5023094;28;20715;-79
2021/08/28 07:58:43;;;;;;;4.20;1.70;;;;;;;;;;5022929;28;20718;-79
2021/08/28 08:01:11;;;;;;;4.43;1.97;;;;;;;;;;5022347;28;20448;-79
2021/08/28 08:03:36;;;;;;;4.20;1.80;;;;;;;;;;5022454;28;20682;-78
2021/08/28 08:06:02;;;;;;;4.77;2.43;;;;;;;;;;5022372;28;20563;-79
2021/08/28 08:08:27;;;;;;;5.63;2.07;;;;;;;;;;5023230;28;20180;-79
2021/08/28 08:10:52;;;;;;;7.73;2.10;;;;;;;;;;5022957;28;20261;-79
2021/08/28 08:13:17;;;;;;;3.60;1.57;;;;;;;;;;5022345;28;20543;-79
2021/08/28 08:15:43;;;;;;;2.40;1.00;;;;;;;;;;5022056;28;20208;-79
2021/08/28 08:18:08;;;;;;;2.30;1.13;;;;;;;;;;5022424;28;20212;-79
2021/08/28 08:20:33;;;;;;;3.27;1.60;;;;;;;;;;5022144;28;20171;-79
2021/08/28 08:22:58;;;;;;;4.00;2.10;;;;;;;;;;5021919;28;21045;-79
2021/08/28 08:25:24;;;;;;;8.50;2.00;;;;;;;;;;5022245;28;20250;-79
2021/08/28 08:27:49;;;;;;;4.70;1.90;;;;;;;;;;5021941;28;20173;-79
2021/08/28 08:30:14;;;;;;;6.03;1.50;;;;;;;;;;5021112;28;20227;-79
2021/08/28 08:32:39;;;;;;;2.73;1.60;;;;;;;;;;5020952;28;20221;-79
2021/08/28 08:35:05;;;;;;;3.67;1.60;;;;;;;;;;5037445;28;20216;-79
2021/08/28 08:37:30;;;;;;;4.90;1.80;;;;;;;;;;5021977;28;20215;-79
2021/08/28 08:39:55;;;;;;;3.60;1.63;;;;;;;;;;5022399;28;20169;-79
2021/08/28 08:42:22;;;;;;;2.80;1.30;;;;;;;;;;5022150;28;20588;-79
2021/08/28 08:44:48;;;;;;;3.20;2.00;;;;;;;;;;5021813;28;20615;-79
2021/08/28 08:47:14;;;;;;;6.00;2.17;;;;;;;;;;5022424;28;20416;-79
2021/08/28 08:49:41;;;;;;;2.13;1.30;;;;;;;;;;5022473;28;20210;-79
2021/08/28 08:52:06;;;;;;;3.60;1.60;;;;;;;;;;5021279;28;20465;-79
2021/08/28 08:54:32;;;;;;;2.50;1.40;;;;;;;;;;5021777;28;20978;-79
2021/08/28 08:56:57;;;;;;;4.83;2.07;;;;;;;;;;5021331;28;20180;-79
2021/08/28 08:59:22;;;;;;;3.77;1.50;;;;;;;;;;5022501;28;20184;-79
2021/08/28 09:01:48;;;;;;;4.60;1.47;;;;;;;;;;5022149;28;20160;-79
2021/08/28 09:04:13;;;;;;;6.80;2.23;;;;;;;;;;5021357;28;20216;-79
2021/08/28 09:06:39;;;;;;;2.20;1.13;;;;;;;;;;5021113;28;20173;-79
2021/08/28 09:09:04;;;;;;;2.70;1.27;;;;;;;;;;5022670;28;20207;-79
2021/08/28 09:11:33;;;;;;;4.73;1.60;;;;;;;;;;5021186;28;20239;-79
2021/08/28 09:14:15;;;;;;;9.77;2.47;;;;;;;;;;5022068;28;20231;-79
2021/08/28 09:16:40;;;;;;;4.50;1.30;;;;;;;;;;5020961;28;20439;-79
2021/08/28 09:19:05;;;;;;;3.60;1.43;;;;;;;;;;5021157;28;20477;-79
2021/08/28 09:21:32;;;;;;;1.93;1.20;;;;;;;;;;5020684;28;20185;-79
2021/08/28 09:24:02;;;;;;;5.97;1.40;;;;;;;;;;5022713;28;20181;-79
2021/08/28 09:26:29;;;;;;;4.50;1.30;;;;;;;;;;5022223;28;20422;-79
2021/08/28 09:28:55;;;;;;;3.13;1.43;;;;;;;;;;5023006;28;20911;-79
2021/08/28 09:31:35;;;;;;;2.60;0.90;;;;;;;;;;5020777;28;20418;-79
2021/08/28 09:34:32;;;;;;;3.77;1.30;;;;;;;;;;5022888;28;20411;-79
2021/08/28 09:36:57;;;;;;;3.23;1.40;;;;;;;;;;5014898;28;20423;-79
2021/08/28 09:39:35;;;;;;;4.23;1.50;;;;;;;;;;5021952;28;20493;-79
2021/08/28 09:42:01;;;;;;;2.63;1.27;;;;;;;;;;5023794;28;20193;-79
2021/08/28 09:44:26;;;;;;;4.13;1.33;;;;;;;;;;5024956;28;20574;-79
2021/08/28 09:46:51;;;;;;;5.47;1.60;;;;;;;;;;5025172;28;20184;-80
2021/08/28 09:49:21;;;;;;;3.70;1.83;;;;;;;;;;5025004;28;20212;-79
2021/08/28 09:51:47;;;;;;;1.93;1.27;;;;;;;;;;5024113;28;20173;-80
2021/08/28 09:54:13;;;;;;;2.97;1.40;;;;;;;;;;5024407;28;20509;-80
2021/08/28 09:56:41;;;;;;;2.40;1.10;;;;;;;;;;5024330;28;20419;-79
2021/08/28 09:59:16;;;;;;;7.27;1.80;;;;;;;;;;5025091;28;20657;-80
2021/08/28 10:01:45;;;;;;;3.63;1.57;;;;;;;;;;5025754;28;20408;-80
2021/08/28 10:04:10;;;;;;;2.73;1.57;;;;;;;;;;5025933;28;20878;-80
2021/08/28 10:06:43;;;;;;;5.87;1.50;;;;;;;;;;5024709;28;20490;-79
2021/08/28 10:09:08;;;;;;;5.00;1.70;;;;;;;;;;5023743;28;20170;-80
2021/08/28 10:11:34;;;;;;;1.83;1.07;;;;;;;;;;5024582;28;20422;-79
2021/08/28 10:14:00;;;;;;;4.13;1.37;;;;;;;;;;5024655;28;20174;-79
2021/08/28 10:16:25;;;;;;;4.10;1.27;;;;;;;;;;5024809;28;20471;-79
2021/08/28 10:18:50;;;;;;;3.70;1.20;;;;;;;;;;5025369;28;20204;-79
2021/08/28 10:21:16;;;;;;;3.03;1.20;;;;;;;;;;5024363;28;20172;-78
2021/08/28 10:23:41;;;;;;;3.50;1.30;;;;;;;;;;5024529;28;20180;-79
2021/08/28 10:26:09;;;;;;;1.97;1.30;;;;;;;;;;5025695;28;20275;-79
2021/08/28 10:28:35;;;;;;;3.47;1.30;;;;;;;;;;5025721;28;20214;-78
2021/08/28 10:31:00;;;;;;;4.00;1.40;;;;;;;;;;5023206;28;20807;-79
2021/08/28 10:33:25;;;;;;;4.00;1.30;;;;;;;;;;5025843;28;20177;-79
2021/08/28 10:35:50;;;;;;;1.37;1.00;;;;;;;;;;5024565;28;20742;-79
2021/08/28 10:38:19;;;;;;;1.90;1.40;;;;;;;;;;5025035;28;20180;-79
2021/08/28 10:40:45;;;;;;;6.53;1.53;;;;;;;;;;5024042;28;20203;-79
2021/08/28 10:43:11;;;;;;;6.40;1.50;;;;;;;;;;5024215;28;20787;-79
2021/08/28 10:45:39;;;;;;;1.77;1.13;;;;;;;;;;5024292;28;20437;-79
2021/08/28 10:48:06;;;;;;;1.97;0.90;;;;;;;;;;5024332;28;20430;-79
2021/08/28 10:50:36;;;;;;;1.93;1.20;;;;;;;;;;5023454;28;20958;-79
2021/08/28 10:53:02;;;;;;;7.63;1.53;;;;;;;;;;5023939;28;20415;-79
2021/08/28 10:55:38;;;;;;;4.73;1.30;;;;;;;;;;5023817;28;20489;-79
2021/08/28 10:58:23;;;;;;;3.23;1.33;;;;;;;;;;5024584;28;20412;-79
2021/08/28 11:00:49;;;;;;;4.80;1.10;;;;;;;;;;5022713;28;20477;-79
2021/08/28 11:03:35;;;;;;;2.90;1.30;;;;;;;;;;5023039;28;20416;-79
2021/08/28 11:06:15;;;;;;;1.87;1.20;;;;;;;;;;5024801;28;20428;-79
2021/08/28 11:08:46;;;;;;;3.17;1.10;;;;;;;;;;5023636;28;21307;-78
2021/08/28 11:11:19;;;;;;;3.70;1.23;;;;;;;;;;5022458;28;20427;-79
2021/08/28 11:13:58;;;;;;;3.93;1.47;;;;;;;;;;5024307;28;20427;-79
2021/08/28 11:16:39;;;;;;;2.20;1.07;;;;;;;;;;5023927;28;20415;-79
2021/08/28 11:19:04;;;;;;;3.10;1.30;;;;;;;;;;5023603;28;20415;-79
2021/08/28 11:21:40;;;;;;;2.07;1.23;;;;;;;;;;5022857;28;20416;-79
2021/08/28 11:24:10;;;;;;;4.10;0.97;;;;;;;;;;5025121;28;20181;-79
2021/08/28 11:26:35;;;;;;;2.40;1.10;;;;;;;;;;5024102;28;20506;-79
2021/08/28 11:29:15;;;;;;;3.10;1.40;;;;;;;;;;5023345;28;20846;-79
2021/08/28 11:32:04;;;;;;;2.07;1.10;;;;;;;;;;5037804;28;20187;-79
2021/08/28 11:34:30;;;;;;;1.80;1.10;;;;;;;;;;5024390;28;20467;-79
2021/08/28 11:37:15;;;;;;;4.93;1.13;;;;;;;;;;5023694;28;20477;-79
2021/08/28 11:39:44;;;;;;;3.70;1.10;;;;;;;;;;5023982;28;20172;-79
2021/08/28 11:42:10;;;;;;;2.90;1.10;;;;;;;;;;5024420;28;20420;-80
2021/08/28 11:44:35;;;;;;;4.10;1.10;;;;;;;;;;5023428;28;20520;-79
2021/08/28 11:47:01;;;;;;;2.20;1.00;;;;;;;;;;5024099;28;20423;-79
2021/08/28 11:49:27;;;;;;;2.30;1.00;;;;;;;;;;5023721;28;20181;-79
2021/08/28 11:51:53;;;;;;;2.10;0.90;;;;;;;;;;5021946;28;20416;-79
2021/08/28 11:54:19;;;;;;;1.70;0.77;;;;;;;;;;5022458;28;20209;-79
2021/08/28 11:56:44;;;;;;;1.10;1.00;;;;;;;;;;5024000;28;20415;-79
2021/08/28 11:59:10;;;;;;;1.73;0.90;;;;;;;;;;5039039;28;20476;-79
2021/08/28 12:01:35;;;;;;;1.97;1.07;;;;;;;;;;5023361;28;20172;-79
2021/08/28 12:04:02;;;;;;;2.07;1.07;;;;;;;;;;5023501;28;20223;-79
2021/08/28 12:06:27;;;;;;;2.80;0.97;;;;;;;;;;5023413;28;20653;-79
2021/08/28 12:08:53;;;;;;;4.10;1.13;;;;;;;;;;5038323;28;20455;-79
2021/08/28 12:11:19;;;;;;;3.70;1.00;;;;;;;;;;5024357;28;20176;-79
2021/08/28 12:14:11;;;;;;;0.97;0.83;;;;;;;;;;5024428;28;20692;-79
2021/08/28 12:16:37;;;;;;;3.23;1.10;;;;;;;;;;5022322;28;20458;-79
2021/08/28 12:19:09;;;;;;;1.27;0.90;;;;;;;;;;5024556;28;20517;-79
2021/08/28 12:21:39;;;;;;;1.17;0.90;;;;;;;;;;5023977;28;20413;-79
2021/08/28 12:24:16;;;;;;;1.43;1.00;;;;;;;;;;5023180;28;20458;-78
2021/08/28 12:26:42;;;;;;;1.23;0.90;;;;;;;;;;5023444;28;20469;-79
2021/08/28 12:29:07;;;;;;;1.33;0.83;;;;;;;;;;5022924;28;20772;-79
2021/08/28 12:31:33;;;;;;;1.13;1.00;;;;;;;;;;5023359;28;20418;-79
2021/08/28 12:34:16;;;;;;;1.73;0.93;;;;;;;;;;5023931;28;20177;-79
2021/08/28 12:36:45;;;;;;;1.30;0.90;;;;;;;;;;5023042;28;20176;-79
2021/08/28 12:39:10;;;;;;;1.60;0.87;;;;;;;;;;5023253;28;20412;-79
2021/08/28 12:41:36;;;;;;;1.43;0.80;;;;;;;;;;5023931;28;20426;-79
2021/08/28 12:44:01;;;;;;;1.73;1.00;;;;;;;;;;5024154;28;20169;-79
2021/08/28 12:46:28;;;;;;;4.07;0.90;;;;;;;;;;5024301;28;20641;-79
2021/08/28 12:49:10;;;;;;;1.40;1.10;;;;;;;;;;5023805;28;20557;-79
2021/08/28 12:51:35;;;;;;;1.43;1.00;;;;;;;;;;5023311;28;20403;-79
2021/08/28 12:54:00;;;;;;;2.40;1.03;;;;;;;;;;5023681;28;20969;-79
2021/08/28 12:56:26;;;;;;;1.40;0.80;;;;;;;;;;5022748;28;20172;-79
2021/08/28 12:58:51;;;;;;;2.10;0.93;;;;;;;;;;5038289;28;20180;-79
2021/08/28 13:01:16;;;;;;;3.73;1.23;;;;;;;;;;5023540;28;20169;-79
2021/08/28 13:03:49;;;;;;;4.10;1.17;;;;;;;;;;5023236;28;20166;-79
2021/08/28 13:06:32;;;;;;;2.80;1.20;;;;;;;;;;5023620;28;20223;-79
2021/08/28 13:09:15;;;;;;;2.77;1.20;;;;;;;;;;5024201;28;20411;-79
2021/08/28 13:11:40;;;;;;;4.90;1.20;;;;;;;;;;5023338;28;20776;-79
2021/08/28 13:14:05;;;;;;;3.07;1.10;;;;;;;;;;5021551;28;20415;-79
2021/08/28 13:16:30;;;;;;;2.40;1.10;;;;;;;;;;5023301;28;20181;-79
2021/08/28 13:19:09;;;;;;;1.60;1.00;;;;;;;;;;5027104;28;20197;-79
2021/08/28 13:21:38;;;;;;;2.70;1.47;;;;;;;;;;5028208;28;20382;-79
2021/08/28 13:24:13;;;;;;;3.43;1.20;;;;;;;;;;5026897;28;20491;-79
2021/08/28 13:26:54;;;;;;;1.60;1.20;;;;;;;;;;5026990;28;20406;-79
2021/08/28 13:29:26;;;;;;;2.10;1.10;;;;;;;;;;5026837;28;20408;-79
2021/08/28 13:32:04;;;;;;;3.70;0.90;;;;;;;;;;5025506;28;20783;-79
2021/08/28 13:34:46;;;;;;;1.53;1.00;;;;;;;;;;5024410;28;20454;-79
2021/08/28 13:37:11;;;;;;;2.83;1.00;;;;;;;;;;5040446;28;20422;-79
2021/08/28 13:39:37;;;;;;;1.87;0.90;;;;;;;;;;5026971;28;20771;-79
2021/08/28 13:42:03;;;;;;;3.73;1.40;;;;;;;;;;5027205;28;20317;-79
2021/08/28 13:44:28;;;;;;;1.27;0.80;;;;;;;;;;5026003;28;20380;-79
2021/08/28 13:46:53;;;;;;;3.33;1.37;;;;;;;;;;5026363;28;20172;-79
2021/08/28 13:49:19;;;;;;;1.03;0.97;;;;;;;;;;5026901;28;20178;-79
2021/08/28 13:51:44;;;;;;;2.37;1.03;;;;;;;;;;5029668;28;20268;-79
2021/08/28 13:54:09;;;;;;;1.60;1.00;;;;;;;;;;5025898;28;20177;-79
2021/08/28 13:56:34;;;;;;;1.33;0.80;;;;;;;;;;5026653;28;20187;-79
2021/08/28 13:59:00;;;;;;;2.13;1.07;;;;;;;;;;5025846;28;20244;-79
2021/08/28 14:01:25;;;;;;;1.33;0.90;;;;;;;;;;5041025;28;20203;-79
2021/08/28 14:03:50;;;;;;;1.87;1.10;;;;;;;;;;5032504;28;20244;-79
2021/08/28 14:06:15;;;;;;;3.33;1.33;;;;;;;;;;5026072;28;20224;-79
2021/08/28 14:08:41;;;;;;;0.87;0.70;;;;;;;;;;5026054;28;20218;-79
2021/08/28 14:11:06;;;;;;;1.80;0.90;;;;;;;;;;5025671;28;20172;-79
2021/08/28 14:13:31;;;;;;;3.10;0.90;;;;;;;;;;5026267;28;20547;-79
2021/08/28 14:15:56;;;;;;;1.33;0.97;;;;;;;;;;5026078;28;20200;-79
2021/08/28 14:18:22;;;;;;;1.27;0.90;;;;;;;;;;5026785;28;20180;-79
2021/08/28 14:20:47;;;;;;;2.77;1.17;;;;;;;;;;5040023;28;20170;-79
2021/08/28 14:23:12;;;;;;;3.47;1.40;;;;;;;;;;5026226;28;20641;-79
2021/08/28 14:25:38;;;;;;;2.13;0.90;;;;;;;;;;5041218;28;20219;-79
2021/08/28 14:28:04;;;;;;;1.47;1.00;;;;;;;;;;5025897;28;20253;-79
2021/08/28 14:30:29;;;;;;;3.50;1.70;;;;;;;;;;5025532;28;20192;-79
2021/08/28 14:32:54;;;;;;;1.60;1.20;;;;;;;;;;5040114;28;20188;-79
2021/08/28 14:35:19;;;;;;;4.30;1.17;;;;;;;;;;5026286;28;20564;-79
2021/08/28 14:37:45;;;;;;;1.93;1.57;;;;;;;;;;5025843;28;20204;-79
2021/08/28 14:40:11;;;;;;;1.33;1.20;;;;;;;;;;5024596;28;20215;-79
2021/08/28 14:42:36;;;;;;;1.63;1.30;;;;;;;;;;5024110;28;20240;-79